sensor_id;sensor_type;location;lat;lon;timestamp;P1;durP1;ratioP1;P2;durP2;ratioP2
71821;SDS011;64096;52.548;13.406;2023-11-21T06:02:38;7.70;;;5.75;;
71821;SDS011;64096;52.548;13.406;2023-11-21T06:05:05;9.13;;;6.30;;
71821;SDS011;64096;52.548;13.406;2023-11-21T06:07:31;8.35;;;6.00;;
71821;SDS011;64096;52.548;13.406;2023-11-21T06:09:57;8.98;;;6.47;;
71821;SDS011;64096;52.548;13.406;2023-11-21T06:12:23;7.75;;;5.53;;
71821;SDS011;64096;52.548;13.406;2023-11-21T06:14:49;9.38;;;5.88;;
71821;SDS011;64096;52.548;13.406;2023-11-21T06:17:16;8.82;;;5.60;;
71821;SDS011;64096;52.548;13.406;2023-11-21T06:19:42;7.47;;;4.97;;
71821;SDS011;64096;52.548;13.406;2023-11-21T06:22:10;7.00;;;4.53;;
71821;SDS011;64096;52.548;13.406;2023-11-21T06:24:36;6.93;;;4.80;;
71821;SDS011;64096;52.548;13.406;2023-11-21T06:27:03;7.13;;;4.90;;
71821;SDS011;64096;52.548;13.406;2023-11-21T06:29:30;6.63;;;4.60;;
71821;SDS011;64096;52.548;13.406;2023-11-21T06:31:57;8.07;;;5.18;;
71821;SDS011;64096;52.548;13.406;2023-11-21T06:34:23;6.60;;;4.88;;
71821;SDS011;64096;52.548;13.406;2023-11-21T06:36:49;6.40;;;4.80;;
71821;SDS011;64096;52.548;13.406;2023-11-21T06:39:16;6.93;;;5.10;;
71821;SDS011;64096;52.548;13.406;2023-11-21T06:41:42;8.27;;;5.10;;
71821;SDS011;64096;52.548;13.406;2023-11-21T06:44:08;6.18;;;4.47;;
71821;SDS011;64096;52.548;13.406;2023-11-21T06:46:34;7.40;;;5.00;;
71821;SDS011;64096;52.548;13.406;2023-11-21T06:49:00;6.65;;;4.70;;
71821;SDS011;64096;52.548;13.406;2023-11-21T06:51:26;8.40;;;5.00;;
71821;SDS011;64096;52.548;13.406;2023-11-21T06:53:52;6.40;;;4.53;;
71821;SDS011;64096;52.548;13.406;2023-11-21T06:56:19;6.90;;;4.32;;
71821;SDS011;64096;52.548;13.406;2023-11-21T06:58:45;6.07;;;4.07;;
71821;SDS011;64096;52.548;13.406;2023-11-21T07:01:12;6.53;;;4.55;;
71821;SDS011;64096;52.548;13.406;2023-11-21T07:03:38;6.93;;;4.25;;
71821;SDS011;64096;52.548;13.406;2023-11-21T07:06:04;6.20;;;4.35;;
71821;SDS011;64096;52.548;13.406;2023-11-21T07:08:31;5.82;;;4.00;;
71821;SDS011;64096;52.548;13.406;2023-11-21T07:10:57;7.15;;;4.80;;
71821;SDS011;64096;52.548;13.406;2023-11-21T07:13:23;6.05;;;4.22;;
71821;SDS011;64096;52.548;13.406;2023-11-21T07:15:49;8.18;;;5.20;;
71821;SDS011;64096;52.548;13.406;2023-11-21T07:18:15;8.00;;;4.25;;
71821;SDS011;64096;52.548;13.406;2023-11-21T07:20:42;6.60;;;4.28;;
71821;SDS011;64096;52.548;13.406;2023-11-21T07:23:08;7.57;;;4.80;;
71821;SDS011;64096;52.548;13.406;2023-11-21T07:25:35;6.80;;;4.78;;
71821;SDS011;64096;52.548;13.406;2023-11-21T07:28:01;7.25;;;4.85;;
71821;SDS011;64096;52.548;13.406;2023-11-21T07:30:28;6.53;;;4.53;;
71821;SDS011;64096;52.548;13.406;2023-11-21T07:32:54;6.38;;;4.75;;
71821;SDS011;64096;52.548;13.406;2023-11-21T07:35:20;6.50;;;4.60;;
71821;SDS011;64096;52.548;13.406;2023-11-21T07:37:46;6.95;;;4.57;;
71821;SDS011;64096;52.548;13.406;2023-11-21T07:40:14;6.85;;;4.55;;
71821;SDS011;64096;52.548;13.406;2023-11-21T07:42:40;7.00;;;4.63;;
71821;SDS011;64096;52.548;13.406;2023-11-21T07:45:08;6.75;;;4.28;;
71821;SDS011;64096;52.548;13.406;2023-11-21T07:47:34;6.47;;;4.50;;
71821;SDS011;64096;52.548;13.406;2023-11-21T07:50:02;7.78;;;4.70;;
71821;SDS011;64096;52.548;13.406;2023-11-21T07:52:28;6.32;;;4.32;;
71821;SDS011;64096;52.548;13.406;2023-11-21T07:54:55;7.45;;;4.72;;
71821;SDS011;64096;52.548;13.406;2023-11-21T07:57:21;6.55;;;4.32;;
71821;SDS011;64096;52.548;13.406;2023-11-21T07:59:47;6.45;;;4.70;;
71821;SDS011;64096;52.548;13.406;2023-11-21T08:02:13;5.85;;;4.30;;
71821;SDS011;64096;52.548;13.406;2023-11-21T08:04:41;6.43;;;3.90;;
71821;SDS011;64096;52.548;13.406;2023-11-21T08:07:08;6.78;;;4.60;;
71821;SDS011;64096;52.548;13.406;2023-11-21T08:09:34;6.03;;;4.15;;
71821;SDS011;64096;52.548;13.406;2023-11-21T08:12:00;6.60;;;4.38;;
71821;SDS011;64096;52.548;13.406;2023-11-21T08:14:27;5.93;;;3.65;;
71821;SDS011;64096;52.548;13.406;2023-11-21T08:16:53;5.47;;;3.67;;
71821;SDS011;64096;52.548;13.406;2023-11-21T08:19:22;5.78;;;4.03;;
71821;SDS011;64096;52.548;13.406;2023-11-21T08:21:50;5.70;;;3.72;;
71821;SDS011;64096;52.548;13.406;2023-11-21T08:24:16;5.00;;;3.20;;
71821;SDS011;64096;52.548;13.406;2023-11-21T08:26:42;7.45;;;3.90;;
71821;SDS011;64096;52.548;13.406;2023-11-21T08:29:08;6.22;;;3.75;;
71821;SDS011;64096;52.548;13.406;2023-11-21T08:31:35;6.57;;;3.67;;
71821;SDS011;64096;52.548;13.406;2023-11-21T08:34:02;5.95;;;3.90;;
71821;SDS011;64096;52.548;13.406;2023-11-21T08:36:28;5.80;;;3.78;;
71821;SDS011;64096;52.548;13.406;2023-11-21T08:38:56;7.22;;;4.25;;
71821;SDS011;64096;52.548;13.406;2023-11-21T08:41:23;7.45;;;4.38;;
71821;SDS011;64096;52.548;13.406;2023-11-21T08:43:52;8.57;;;4.15;;
71821;SDS011;64096;52.548;13.406;2023-11-21T08:46:20;6.53;;;3.85;;
71821;SDS011;64096;52.548;13.406;2023-11-21T08:48:46;7.55;;;4.18;;
71821;SDS011;64096;52.548;13.406;2023-11-21T08:51:12;6.82;;;4.13;;
71821;SDS011;64096;52.548;13.406;2023-11-21T08:53:39;7.75;;;4.85;;
71821;SDS011;64096;52.548;13.406;2023-11-21T08:56:05;7.60;;;4.65;;
71821;SDS011;64096;52.548;13.406;2023-11-21T08:58:31;9.07;;;4.93;;
71821;SDS011;64096;52.548;13.406;2023-11-21T09:00:57;9.15;;;4.95;;
71821;SDS011;64096;52.548;13.406;2023-11-21T09:03:23;9.15;;;5.05;;
71821;SDS011;64096;52.548;13.406;2023-11-21T09:05:50;9.55;;;5.55;;
71821;SDS011;64096;52.548;13.406;2023-11-21T09:08:16;10.07;;;6.20;;
71821;SDS011;64096;52.548;13.406;2023-11-21T09:10:42;10.65;;;5.47;;
71821;SDS011;64096;52.548;13.406;2023-11-21T09:13:12;9.65;;;5.28;;
71821;SDS011;64096;52.548;13.406;2023-11-21T09:15:38;10.57;;;6.05;;
71821;SDS011;64096;52.548;13.406;2023-11-21T09:18:05;9.82;;;5.68;;
71821;SDS011;64096;52.548;13.406;2023-11-21T09:20:31;9.13;;;5.82;;
71821;SDS011;64096;52.548;13.406;2023-11-21T09:22:57;11.43;;;6.47;;
71821;SDS011;64096;52.548;13.406;2023-11-21T09:25:23;12.23;;;5.90;;
71821;SDS011;64096;52.548;13.406;2023-11-21T09:27:49;12.68;;;6.13;;
71821;SDS011;64096;52.548;13.406;2023-11-21T09:30:15;16.75;;;9.55;;
71821;SDS011;64096;52.548;13.406;2023-11-21T09:32:42;12.60;;;6.65;;
71821;SDS011;64096;52.548;13.406;2023-11-21T09:35:10;10.98;;;5.35;;
71821;SDS011;64096;52.548;13.406;2023-11-21T09:37:38;11.73;;;6.25;;
71821;SDS011;64096;52.548;13.406;2023-11-21T09:40:05;12.95;;;5.93;;
71821;SDS011;64096;52.548;13.406;2023-11-21T09:42:40;11.27;;;5.85;;
71821;SDS011;64096;52.548;13.406;2023-11-21T09:45:18;10.57;;;5.45;;
71821;SDS011;64096;52.548;13.406;2023-11-21T09:47:48;10.05;;;5.00;;
71821;SDS011;64096;52.548;13.406;2023-11-21T09:50:16;10.45;;;5.15;;
71821;SDS011;64096;52.548;13.406;2023-11-21T09:55:22;8.70;;;4.40;;
71821;SDS011;64096;52.548;13.406;2023-11-21T09:57:50;10.05;;;5.25;;
71821;SDS011;64096;52.548;13.406;2023-11-21T10:00:17;8.52;;;4.40;;
71821;SDS011;64096;52.548;13.406;2023-11-21T10:02:45;8.80;;;4.93;;
71821;SDS011;64096;52.548;13.406;2023-11-21T10:05:13;8.50;;;4.43;;
71821;SDS011;64096;52.548;13.406;2023-11-21T10:07:40;9.45;;;4.85;;
71821;SDS011;64096;52.548;13.406;2023-11-21T10:10:09;7.53;;;4.18;;
71821;SDS011;64096;52.548;13.406;2023-11-21T10:12:35;7.85;;;3.92;;
71821;SDS011;64096;52.548;13.406;2023-11-21T10:15:03;9.57;;;5.35;;
71821;SDS011;64096;52.548;13.406;2023-11-21T10:17:32;6.97;;;4.10;;
71821;SDS011;64096;52.548;13.406;2023-11-21T10:20:04;8.18;;;5.05;;
71821;SDS011;64096;52.548;13.406;2023-11-21T10:22:36;6.17;;;3.30;;
71821;SDS011;64096;52.548;13.406;2023-11-21T10:25:03;6.00;;;3.47;;
71821;SDS011;64096;52.548;13.406;2023-11-21T10:27:32;7.43;;;3.47;;
71821;SDS011;64096;52.548;13.406;2023-11-21T10:30:00;5.78;;;3.45;;
71821;SDS011;64096;52.548;13.406;2023-11-21T10:32:29;5.28;;;3.28;;
71821;SDS011;64096;52.548;13.406;2023-11-21T10:34:57;5.40;;;2.95;;
71821;SDS011;64096;52.548;13.406;2023-11-21T10:37:31;4.95;;;2.75;;
71821;SDS011;64096;52.548;13.406;2023-11-21T10:40:00;5.70;;;2.92;;
71821;SDS011;64096;52.548;13.406;2023-11-21T10:42:26;5.35;;;2.85;;
71821;SDS011;64096;52.548;13.406;2023-11-21T10:44:53;4.50;;;2.72;;
71821;SDS011;64096;52.548;13.406;2023-11-21T10:47:19;5.25;;;3.13;;
71821;SDS011;64096;52.548;13.406;2023-11-21T10:49:50;6.13;;;2.78;;
71821;SDS011;64096;52.548;13.406;2023-11-21T10:52:20;5.13;;;2.83;;
71821;SDS011;64096;52.548;13.406;2023-11-21T10:54:46;4.70;;;3.00;;
71821;SDS011;64096;52.548;13.406;2023-11-21T10:57:13;5.80;;;2.83;;
71821;SDS011;64096;52.548;13.406;2023-11-21T10:59:43;5.32;;;3.08;;
71821;SDS011;64096;52.548;13.406;2023-11-21T11:02:32;4.18;;;2.53;;
71821;SDS011;64096;52.548;13.406;2023-11-21T11:04:59;5.18;;;2.65;;
71821;SDS011;64096;52.548;13.406;2023-11-21T11:07:27;5.18;;;2.85;;
71821;SDS011;64096;52.548;13.406;2023-11-21T11:09:55;5.00;;;2.72;;
71821;SDS011;64096;52.548;13.406;2023-11-21T11:12:21;4.03;;;2.30;;
71821;SDS011;64096;52.548;13.406;2023-11-21T11:14:48;4.53;;;2.65;;
71821;SDS011;64096;52.548;13.406;2023-11-21T11:17:14;4.50;;;2.67;;
71821;SDS011;64096;52.548;13.406;2023-11-21T11:19:41;4.18;;;2.33;;
71821;SDS011;64096;52.548;13.406;2023-11-21T11:22:10;4.72;;;2.78;;
71821;SDS011;64096;52.548;13.406;2023-11-21T11:24:59;4.88;;;2.72;;
71821;SDS011;64096;52.548;13.406;2023-11-21T11:35:17;5.13;;;3.10;;
71821;SDS011;64096;52.548;13.406;2023-11-21T11:37:43;3.70;;;2.45;;
71821;SDS011;64096;52.548;13.406;2023-11-21T11:40:12;4.63;;;2.53;;
71821;SDS011;64096;52.548;13.406;2023-11-21T11:42:38;4.65;;;2.60;;
71821;SDS011;64096;52.548;13.406;2023-11-21T11:45:31;3.67;;;1.92;;
71821;SDS011;64096;52.548;13.406;2023-11-21T11:47:56;4.00;;;2.45;;
71821;SDS011;64096;52.548;13.406;2023-11-21T11:50:22;3.90;;;2.22;;
71821;SDS011;64096;52.548;13.406;2023-11-21T11:52:52;4.10;;;2.53;;
71821;SDS011;64096;52.548;13.406;2023-11-21T11:55:23;3.90;;;2.60;;
71821;SDS011;64096;52.548;13.406;2023-11-21T11:57:53;3.78;;;2.17;;
71821;SDS011;64096;52.548;13.406;2023-11-21T12:02:57;4.60;;;2.35;;
71821;SDS011;64096;52.548;13.406;2023-11-21T12:05:25;4.30;;;2.63;;
71821;SDS011;64096;52.548;13.406;2023-11-21T12:07:54;3.65;;;2.22;;
71821;SDS011;64096;52.548;13.406;2023-11-21T12:10:25;4.20;;;2.45;;
71821;SDS011;64096;52.548;13.406;2023-11-21T12:12:56;3.60;;;2.33;;
71821;SDS011;64096;52.548;13.406;2023-11-21T12:15:23;4.80;;;2.45;;
71821;SDS011;64096;52.548;13.406;2023-11-21T12:17:50;4.18;;;2.10;;
71821;SDS011;64096;52.548;13.406;2023-11-21T12:20:20;4.43;;;2.58;;
71821;SDS011;64096;52.548;13.406;2023-11-21T12:22:47;4.20;;;2.40;;
71821;SDS011;64096;52.548;13.406;2023-11-21T12:25:14;4.60;;;2.80;;
71821;SDS011;64096;52.548;13.406;2023-11-21T12:27:43;4.28;;;2.50;;
71821;SDS011;64096;52.548;13.406;2023-11-21T12:30:10;3.97;;;2.42;;
71821;SDS011;64096;52.548;13.406;2023-11-21T12:32:41;4.88;;;2.72;;
71821;SDS011;64096;52.548;13.406;2023-11-21T12:35:08;6.15;;;2.80;;
71821;SDS011;64096;52.548;13.406;2023-11-21T12:37:36;4.10;;;2.50;;
71821;SDS011;64096;52.548;13.406;2023-11-21T12:40:04;6.90;;;2.85;;
71821;SDS011;64096;52.548;13.406;2023-11-21T12:42:30;3.80;;;2.42;;
71821;SDS011;64096;52.548;13.406;2023-11-21T12:47:39;4.60;;;2.83;;
71821;SDS011;64096;52.548;13.406;2023-11-21T12:50:05;5.15;;;3.03;;
71821;SDS011;64096;52.548;13.406;2023-11-21T12:52:32;5.00;;;3.20;;
71821;SDS011;64096;52.548;13.406;2023-11-21T12:54:58;6.13;;;2.90;;
71821;SDS011;64096;52.548;13.406;2023-11-21T12:57:27;5.55;;;3.60;;
71821;SDS011;64096;52.548;13.406;2023-11-21T12:59:57;5.80;;;3.20;;
71821;SDS011;64096;52.548;13.406;2023-11-21T13:02:25;5.50;;;3.35;;
71821;SDS011;64096;52.548;13.406;2023-11-21T13:04:52;5.72;;;3.42;;
71821;SDS011;64096;52.548;13.406;2023-11-21T13:07:19;5.25;;;3.10;;
71821;SDS011;64096;52.548;13.406;2023-11-21T13:09:47;5.07;;;3.10;;
71821;SDS011;64096;52.548;13.406;2023-11-21T13:12:13;5.57;;;3.80;;
71821;SDS011;64096;52.548;13.406;2023-11-21T13:14:43;5.53;;;3.55;;
71821;SDS011;64096;52.548;13.406;2023-11-21T13:17:11;6.18;;;3.70;;
71821;SDS011;64096;52.548;13.406;2023-11-21T13:19:38;5.95;;;3.47;;
71821;SDS011;64096;52.548;13.406;2023-11-21T13:22:04;6.28;;;3.78;;
71821;SDS011;64096;52.548;13.406;2023-11-21T13:24:30;5.72;;;3.72;;
71821;SDS011;64096;52.548;13.406;2023-11-21T13:26:57;6.13;;;3.80;;
71821;SDS011;64096;52.548;13.406;2023-11-21T13:29:23;6.95;;;4.00;;
71821;SDS011;64096;52.548;13.406;2023-11-21T13:31:50;7.03;;;4.07;;
71821;SDS011;64096;52.548;13.406;2023-11-21T13:34:18;6.55;;;4.07;;
71821;SDS011;64096;52.548;13.406;2023-11-21T13:36:47;7.88;;;4.70;;
71821;SDS011;64096;52.548;13.406;2023-11-21T13:39:13;7.30;;;5.15;;
71821;SDS011;64096;52.548;13.406;2023-11-21T13:41:40;7.28;;;4.85;;
71821;SDS011;64096;52.548;13.406;2023-11-21T13:44:06;7.03;;;4.70;;
71821;SDS011;64096;52.548;13.406;2023-11-21T13:46:51;7.35;;;4.70;;
71821;SDS011;64096;52.548;13.406;2023-11-21T13:49:17;6.97;;;4.57;;
71821;SDS011;64096;52.548;13.406;2023-11-21T13:51:46;6.90;;;4.07;;
71821;SDS011;64096;52.548;13.406;2023-11-21T13:54:15;7.15;;;4.80;;
71821;SDS011;64096;52.548;13.406;2023-11-21T13:56:41;7.13;;;4.75;;
71821;SDS011;64096;52.548;13.406;2023-11-21T13:59:09;7.97;;;5.30;;
